createdAt,value
2023-05-14T00:00:06.661Z,7.99
2023-05-14T00:02:33.479Z,7.98
2023-05-14T00:05:00.280Z,7.99
2023-05-14T00:07:30.904Z,7.97
2023-05-14T00:09:58.650Z,7.93
2023-05-14T00:12:26.491Z,7.90
2023-05-14T00:14:53.856Z,7.83
2023-05-14T00:17:20.761Z,7.77
2023-05-14T00:19:49.351Z,7.76
2023-05-14T00:25:07.065Z,7.71
2023-05-14T00:27:34.510Z,7.66
2023-05-14T00:30:01.213Z,7.65
2023-05-14T00:32:27.969Z,7.57
2023-05-14T00:34:54.717Z,7.53
2023-05-14T00:37:21.445Z,7.54
2023-05-14T00:39:48.191Z,7.49
2023-05-14T00:42:14.970Z,7.49
2023-05-14T00:44:41.649Z,7.47
2023-05-14T00:47:08.775Z,7.46
2023-05-14T00:49:36.068Z,7.46
2023-05-14T00:52:03.701Z,7.43
2023-05-14T00:54:30.778Z,7.41
2023-05-14T00:56:57.853Z,7.40
2023-05-14T00:59:24.603Z,7.35
2023-05-14T01:01:51.352Z,7.32
2023-05-14T01:04:18.558Z,7.32
2023-05-14T01:07:06.961Z,7.36
2023-05-14T01:09:58.259Z,7.32
2023-05-14T01:12:39.644Z,7.24
2023-05-14T01:15:11.605Z,7.17
2023-05-14T01:17:45.959Z,7.19
2023-05-14T01:20:12.911Z,7.21
2023-05-14T01:22:40.095Z,7.23
2023-05-14T01:25:08.667Z,7.21
2023-05-14T01:28:03.022Z,7.17
2023-05-14T01:30:31.535Z,7.14
2023-05-14T01:33:00.716Z,7.14
2023-05-14T01:35:29.416Z,7.12
2023-05-14T01:38:03.057Z,7.12
2023-05-14T01:40:31.920Z,7.13
2023-05-14T01:42:59.721Z,7.11
2023-05-14T01:45:26.609Z,7.05
2023-05-14T01:47:54.434Z,6.95
2023-05-14T01:50:21.524Z,6.79
2023-05-14T01:52:48.518Z,6.68
2023-05-14T01:55:16.284Z,6.57
2023-05-14T01:57:43.030Z,6.50
2023-05-14T02:00:10.977Z,6.45
2023-05-14T02:02:37.718Z,6.36
2023-05-14T02:05:07.037Z,6.33
2023-05-14T02:07:33.966Z,6.28
2023-05-14T02:10:01.055Z,6.22
2023-05-14T02:12:27.960Z,6.17
2023-05-14T02:14:54.732Z,6.17
2023-05-14T02:17:21.445Z,6.17
2023-05-14T02:19:50.711Z,6.14
2023-05-14T02:22:17.479Z,6.14
2023-05-14T02:24:44.170Z,6.11
2023-05-14T02:27:12.920Z,6.07
2023-05-14T02:29:39.672Z,6.05
2023-05-14T02:32:07.079Z,6.01
2023-05-14T02:34:48.746Z,5.94
2023-05-14T02:37:24.622Z,5.88
2023-05-14T02:39:51.307Z,5.87
2023-05-14T02:42:20.065Z,5.87
2023-05-14T02:44:51.266Z,5.88
2023-05-14T02:47:18.695Z,5.84
2023-05-14T02:49:45.464Z,5.79
2023-05-14T02:52:12.162Z,5.75
2023-05-14T02:54:38.874Z,5.75
2023-05-14T02:57:06.336Z,5.75
2023-05-14T02:59:33.240Z,5.72
2023-05-14T03:02:00.611Z,5.70
2023-05-14T03:04:27.938Z,5.71
2023-05-14T03:06:54.690Z,5.71
2023-05-14T03:09:21.432Z,5.70
2023-05-14T03:11:48.325Z,5.71
2023-05-14T03:14:15.083Z,5.73
2023-05-14T03:16:42.483Z,5.74
2023-05-14T03:19:10.013Z,5.77
2023-05-14T03:21:37.025Z,5.78
2023-05-14T03:24:04.188Z,5.81
2023-05-14T03:26:30.922Z,5.84
2023-05-14T03:28:57.614Z,5.83
2023-05-14T03:31:24.962Z,5.82
2023-05-14T03:33:51.905Z,5.83
2023-05-14T03:36:19.055Z,5.88
2023-05-14T03:38:45.785Z,5.90
2023-05-14T03:41:12.477Z,5.90
2023-05-14T03:43:39.308Z,5.92
2023-05-14T03:46:06.075Z,6.01
2023-05-14T03:48:32.806Z,6.11
2023-05-14T03:50:59.786Z,6.19
2023-05-14T03:53:26.629Z,6.25
2023-05-14T03:55:53.337Z,6.30
2023-05-14T03:58:20.070Z,6.36
2023-05-14T04:00:47.069Z,6.38
2023-05-14T04:03:13.908Z,6.40
2023-05-14T04:05:41.182Z,6.46
2023-05-14T04:08:08.077Z,6.53
2023-05-14T04:10:35.856Z,6.50
2023-05-14T04:13:02.808Z,6.44
2023-05-14T04:15:29.586Z,6.44
2023-05-14T04:17:56.383Z,6.42
2023-05-14T04:20:23.225Z,6.42
2023-05-14T04:22:50.113Z,6.42
2023-05-14T04:25:18.582Z,6.44
2023-05-14T04:27:45.569Z,6.51
2023-05-14T04:30:12.635Z,6.55
2023-05-14T04:32:39.407Z,6.59
2023-05-14T04:35:06.933Z,6.60
2023-05-14T04:37:33.656Z,6.64
2023-05-14T04:40:01.050Z,6.68
2023-05-14T04:42:27.850Z,6.73
2023-05-14T04:44:54.550Z,6.82
2023-05-14T04:47:21.286Z,6.88
2023-05-14T04:49:48.348Z,6.98
2023-05-14T04:52:15.079Z,7.05
2023-05-14T04:54:41.873Z,7.10
2023-05-14T04:57:08.715Z,7.19
2023-05-14T04:59:35.576Z,7.27
2023-05-14T05:02:02.506Z,7.36
2023-05-14T05:04:29.331Z,7.47
2023-05-14T05:06:56.068Z,7.60
2023-05-14T05:09:22.816Z,7.74
2023-05-14T05:11:49.449Z,7.83
2023-05-14T05:14:23.542Z,7.94
2023-05-14T05:16:51.505Z,8.10
2023-05-14T05:19:22.375Z,8.28
2023-05-14T05:21:53.485Z,8.50
2023-05-14T05:24:20.190Z,8.73
2023-05-14T05:26:47.155Z,8.86
2023-05-14T05:29:13.862Z,8.96
2023-05-14T05:31:40.857Z,9.04
2023-05-14T05:34:07.595Z,9.08
2023-05-14T05:36:34.366Z,9.22
2023-05-14T05:39:01.112Z,9.37
2023-05-14T05:41:27.907Z,9.47
2023-05-14T05:43:54.649Z,9.53
2023-05-14T05:46:21.991Z,9.55
2023-05-14T05:48:48.709Z,9.62
2023-05-14T05:51:15.470Z,9.69
2023-05-14T05:53:44.551Z,9.71
2023-05-14T05:56:11.262Z,9.70
2023-05-14T05:58:38.812Z,9.74
2023-05-14T06:01:05.777Z,9.87
2023-05-14T06:03:34.948Z,10.37
2023-05-14T06:06:01.654Z,11.90
2023-05-14T06:08:29.424Z,13.60
2023-05-14T06:10:56.162Z,15.25
2023-05-14T06:13:22.841Z,16.85
2023-05-14T06:15:49.594Z,17.93
2023-05-14T06:18:16.297Z,19.27
2023-05-14T06:20:45.330Z,21.06
2023-05-14T06:23:12.446Z,22.43
2023-05-14T06:25:39.543Z,22.90
2023-05-14T06:28:06.533Z,23.39
2023-05-14T06:30:34.446Z,23.90
2023-05-14T06:33:01.596Z,24.87
2023-05-14T06:35:28.460Z,25.33
2023-05-14T06:37:57.241Z,25.80
2023-05-14T06:40:24.117Z,26.59
2023-05-14T06:42:51.044Z,27.31
2023-05-14T06:45:17.957Z,26.89
2023-05-14T06:47:45.881Z,25.93
2023-05-14T06:50:13.010Z,25.63
2023-05-14T06:52:41.859Z,25.58
2023-05-14T06:55:08.920Z,25.62
2023-05-14T06:57:35.754Z,25.09
2023-05-14T07:00:03.773Z,24.91
2023-05-14T07:02:30.941Z,25.69
2023-05-14T07:04:57.759Z,26.72
2023-05-14T07:07:24.554Z,27.58
2023-05-14T07:09:51.814Z,28.20
2023-05-14T07:12:18.490Z,28.66
2023-05-14T07:14:45.296Z,29.05
2023-05-14T07:17:13.185Z,29.34
2023-05-14T07:19:41.073Z,29.81
2023-05-14T07:22:07.758Z,30.00
2023-05-14T07:24:34.449Z,30.12
2023-05-14T07:27:02.062Z,30.47
2023-05-14T07:29:30.653Z,31.06
2023-05-14T07:31:57.333Z,31.45
2023-05-14T07:34:24.022Z,31.88
2023-05-14T07:36:51.203Z,32.42
2023-05-14T07:39:18.326Z,32.84
2023-05-14T07:41:45.060Z,33.24
2023-05-14T07:44:11.845Z,33.71
2023-05-14T07:46:38.579Z,34.07
2023-05-14T07:49:05.735Z,34.72
2023-05-14T07:51:33.623Z,35.27
2023-05-14T07:54:01.447Z,35.78
2023-05-14T07:56:28.606Z,36.56
2023-05-14T07:58:56.672Z,37.07
2023-05-14T08:01:25.287Z,37.15
2023-05-14T08:03:52.154Z,37.31
2023-05-14T08:06:21.117Z,37.56
2023-05-14T08:08:47.889Z,37.73
2023-05-14T08:11:15.836Z,38.16
2023-05-14T08:13:42.657Z,38.45
2023-05-14T08:16:09.414Z,38.63
2023-05-14T08:18:37.252Z,38.72
2023-05-14T08:21:04.142Z,39.04
2023-05-14T08:23:30.905Z,39.32
2023-05-14T08:25:57.565Z,39.63
2023-05-14T08:28:24.297Z,39.68
2023-05-14T08:30:51.703Z,39.70
2023-05-14T08:33:18.467Z,39.73
2023-05-14T08:35:45.137Z,39.89
2023-05-14T08:38:11.828Z,39.84
2023-05-14T08:40:38.535Z,40.04
2023-05-14T08:43:08.094Z,40.56
2023-05-14T08:45:35.753Z,41.06
2023-05-14T08:48:08.906Z,41.29
2023-05-14T08:50:36.400Z,41.23
2023-05-14T08:53:04.275Z,40.81
2023-05-14T08:55:33.712Z,40.25
2023-05-14T08:58:01.337Z,39.61
2023-05-14T09:00:28.196Z,39.15
2023-05-14T09:02:56.005Z,38.68
2023-05-14T09:05:23.690Z,37.92
2023-05-14T09:07:50.427Z,36.54
2023-05-14T09:10:17.628Z,35.06
2023-05-14T09:12:44.645Z,33.85
2023-05-14T09:15:11.378Z,32.85
2023-05-14T09:17:38.190Z,32.04
2023-05-14T09:20:06.037Z,30.97
2023-05-14T09:22:36.975Z,29.54
2023-05-14T09:25:06.532Z,28.22
2023-05-14T09:27:34.249Z,26.91
2023-05-14T09:30:12.628Z,26.25
2023-05-14T09:32:44.256Z,26.00
2023-05-14T09:35:17.320Z,25.78
2023-05-14T09:37:47.434Z,25.41
2023-05-14T09:40:14.760Z,25.14
2023-05-14T09:42:41.907Z,24.72
2023-05-14T09:45:10.130Z,24.45
2023-05-14T09:47:38.189Z,24.26
2023-05-14T09:50:05.985Z,23.83
2023-05-14T09:52:33.155Z,23.28
2023-05-14T09:55:00.979Z,22.71
2023-05-14T09:57:27.815Z,22.29
2023-05-14T09:59:54.527Z,22.17
2023-05-14T10:02:25.560Z,22.08
2023-05-14T10:04:54.721Z,21.56
2023-05-14T10:07:26.481Z,21.45
2023-05-14T10:10:02.114Z,21.33
2023-05-14T10:12:37.485Z,21.09
2023-05-14T10:15:32.721Z,20.93
2023-05-14T10:18:08.126Z,20.36
2023-05-14T10:20:36.108Z,20.26
2023-05-14T10:23:06.013Z,20.31
2023-05-14T10:25:34.346Z,20.36
2023-05-14T10:28:02.673Z,20.25
2023-05-14T10:30:29.497Z,20.03
2023-05-14T10:33:08.286Z,20.01
2023-05-14T10:35:57.885Z,20.13
2023-05-14T10:38:29.547Z,20.10
2023-05-14T10:41:17.923Z,20.10
2023-05-14T10:43:44.854Z,20.07
2023-05-14T10:46:13.450Z,19.86
2023-05-14T10:48:43.777Z,19.67
2023-05-14T10:51:11.500Z,19.68
2023-05-14T10:53:41.231Z,19.86
2023-05-14T10:56:11.599Z,20.27
2023-05-14T10:58:40.304Z,20.57
2023-05-14T11:01:13.400Z,20.68
2023-05-14T11:03:45.552Z,20.85
2023-05-14T11:06:16.108Z,20.89
2023-05-14T11:08:44.112Z,20.85
2023-05-14T11:11:11.115Z,20.81
2023-05-14T11:13:38.566Z,20.54
2023-05-14T11:18:41.957Z,20.62
2023-05-14T11:21:08.992Z,20.85
2023-05-14T11:23:37.553Z,20.82
2023-05-14T11:26:04.609Z,20.62
2023-05-14T11:28:31.501Z,20.29
2023-05-14T11:30:59.308Z,20.26
2023-05-14T11:33:27.984Z,20.48
2023-05-14T11:35:54.764Z,20.70
2023-05-14T11:38:21.905Z,20.94
2023-05-14T11:40:58.191Z,20.94
2023-05-14T11:43:28.517Z,21.01
2023-05-14T11:45:55.965Z,21.18
2023-05-14T11:48:25.185Z,21.29
2023-05-14T11:50:53.208Z,21.17
2023-05-14T11:53:31.307Z,20.94
2023-05-14T11:55:58.346Z,20.83
2023-05-14T11:58:25.495Z,20.68
2023-05-14T12:00:55.879Z,20.50
2023-05-14T12:03:30.361Z,20.32
2023-05-14T12:06:01.321Z,20.11
2023-05-14T12:08:31.964Z,20.21
2023-05-14T12:11:00.522Z,20.22
2023-05-14T12:13:31.472Z,20.18
2023-05-14T12:16:01.019Z,19.98
2023-05-14T12:18:29.920Z,19.85
2023-05-14T12:21:02.210Z,19.85
2023-05-14T12:23:33.190Z,19.79
2023-05-14T12:26:06.201Z,19.71
2023-05-14T12:28:35.314Z,19.79
2023-05-14T12:31:03.800Z,20.00
2023-05-14T12:33:30.677Z,20.14
2023-05-14T12:36:13.960Z,20.11
2023-05-14T12:38:48.104Z,20.16
2023-05-14T12:41:14.800Z,20.37
2023-05-14T12:43:45.372Z,20.32
2023-05-14T12:46:12.421Z,20.36
2023-05-14T12:48:39.214Z,20.47
2023-05-14T12:51:06.685Z,20.47
2023-05-14T12:53:34.901Z,20.32
2023-05-14T12:56:02.093Z,20.26
2023-05-14T12:58:28.889Z,20.21
2023-05-14T13:00:56.501Z,20.29
2023-05-14T13:03:35.641Z,20.39
2023-05-14T13:06:02.299Z,20.53
2023-05-14T13:08:30.411Z,20.72
2023-05-14T13:10:57.212Z,20.62
2023-05-14T13:13:23.935Z,20.52
2023-05-14T13:15:50.966Z,20.46
2023-05-14T13:18:18.020Z,20.26
2023-05-14T13:20:46.334Z,20.00
2023-05-14T13:23:13.544Z,19.73
2023-05-14T13:25:41.578Z,19.69
2023-05-14T13:28:11.317Z,19.69
2023-05-14T13:30:38.466Z,19.63
2023-05-14T13:33:05.774Z,19.48
2023-05-14T13:35:33.159Z,19.36
2023-05-14T13:38:01.196Z,19.37
2023-05-14T13:40:27.930Z,19.32
2023-05-14T13:42:54.663Z,19.28
2023-05-14T13:45:21.835Z,19.21
2023-05-14T13:47:51.846Z,19.25
2023-05-14T13:50:18.666Z,19.35
2023-05-14T13:52:45.622Z,19.38
2023-05-14T13:55:16.281Z,19.41
2023-05-14T13:57:43.811Z,19.67
2023-05-14T14:00:14.234Z,19.81
2023-05-14T14:02:42.779Z,19.68
2023-05-14T14:05:09.933Z,19.48
2023-05-14T14:07:39.509Z,19.27
2023-05-14T14:10:07.092Z,19.07
2023-05-14T14:12:34.272Z,19.06
2023-05-14T14:15:03.186Z,18.98
2023-05-14T14:17:29.933Z,18.89
2023-05-14T14:19:56.766Z,19.04
2023-05-14T14:22:26.151Z,18.97
2023-05-14T14:24:55.251Z,18.99
2023-05-14T14:27:22.551Z,19.20
2023-05-14T14:29:51.288Z,19.18
2023-05-14T14:32:18.042Z,19.07
2023-05-14T14:34:44.910Z,19.08
2023-05-14T14:37:11.644Z,19.10
2023-05-14T14:39:38.313Z,19.00
2023-05-14T14:42:05.832Z,19.01
2023-05-14T14:44:32.544Z,18.98
2023-05-14T14:47:00.628Z,18.84
2023-05-14T14:49:28.687Z,18.70
2023-05-14T14:51:55.731Z,18.65
2023-05-14T14:54:22.433Z,18.59
2023-05-14T14:56:53.253Z,18.58
2023-05-14T14:59:20.007Z,18.75
2023-05-14T15:01:46.829Z,18.77
2023-05-14T15:04:13.781Z,18.56
2023-05-14T15:06:41.627Z,18.35
2023-05-14T15:09:09.258Z,18.31
2023-05-14T15:11:37.421Z,18.27
2023-05-14T15:14:04.501Z,18.27
2023-05-14T15:16:31.246Z,18.45
2023-05-14T15:18:59.648Z,18.62
2023-05-14T15:21:27.527Z,18.62
2023-05-14T15:23:54.167Z,18.44
2023-05-14T15:26:21.828Z,18.17
2023-05-14T15:28:49.505Z,17.92
2023-05-14T15:31:16.566Z,17.77
2023-05-14T15:33:45.529Z,17.72
2023-05-14T15:36:12.805Z,17.72
2023-05-14T15:38:42.948Z,17.73
2023-05-14T15:41:09.915Z,17.69
2023-05-14T15:43:38.800Z,17.60
2023-05-14T15:46:06.122Z,17.59
2023-05-14T15:48:34.212Z,17.60
2023-05-14T15:51:00.907Z,17.54
2023-05-14T15:53:28.108Z,17.39
2023-05-14T15:55:54.993Z,17.27
2023-05-14T15:58:23.997Z,17.20
2023-05-14T16:00:50.729Z,17.22
2023-05-14T16:03:19.146Z,17.25
2023-05-14T16:05:45.978Z,17.25
2023-05-14T16:08:12.720Z,17.27
2023-05-14T16:10:39.466Z,17.30
2023-05-14T16:13:09.325Z,17.26
2023-05-14T16:15:37.251Z,17.22
2023-05-14T16:18:04.203Z,17.18
2023-05-14T16:20:30.935Z,17.13
2023-05-14T16:22:58.364Z,17.08
2023-05-14T16:25:25.140Z,17.03
2023-05-14T16:27:51.861Z,17.03
2023-05-14T16:30:18.756Z,17.13
2023-05-14T16:32:49.534Z,17.10
2023-05-14T16:35:17.024Z,17.02
2023-05-14T16:37:43.851Z,17.01
2023-05-14T16:40:11.958Z,17.04
2023-05-14T16:42:38.964Z,16.97
2023-05-14T16:45:06.443Z,16.93
2023-05-14T16:47:33.237Z,16.94
2023-05-14T16:50:00.188Z,16.94
2023-05-14T16:52:26.875Z,16.95
2023-05-14T16:54:53.640Z,16.93
2023-05-14T16:57:20.348Z,16.88
2023-05-14T16:59:47.141Z,16.83
2023-05-14T17:02:13.825Z,16.85
2023-05-14T17:04:44.617Z,16.87
2023-05-14T17:07:11.820Z,16.85
2023-05-14T17:09:38.707Z,16.81
2023-05-14T17:12:07.182Z,16.79
2023-05-14T17:14:33.979Z,16.78
2023-05-14T17:17:03.228Z,16.72
2023-05-14T17:19:29.955Z,16.62
2023-05-14T17:21:57.117Z,16.52
2023-05-14T17:24:25.041Z,16.41
2023-05-14T17:26:51.999Z,16.35
2023-05-14T17:29:18.710Z,16.41
2023-05-14T17:31:45.710Z,16.43
2023-05-14T17:34:13.365Z,16.43
2023-05-14T17:36:41.868Z,16.46
2023-05-14T17:39:09.207Z,16.47
2023-05-14T17:41:35.938Z,16.48
2023-05-14T17:44:03.366Z,16.47
2023-05-14T17:46:30.622Z,16.42
2023-05-14T17:48:58.466Z,16.33
2023-05-14T17:51:26.183Z,16.28
2023-05-14T17:53:52.988Z,16.22
2023-05-14T17:56:21.111Z,16.20
2023-05-14T17:58:49.333Z,16.11
2023-05-14T18:01:17.830Z,16.01
2023-05-14T18:03:44.877Z,15.93
2023-05-14T18:06:11.677Z,15.90
2023-05-14T18:08:38.422Z,15.88
2023-05-14T18:11:06.245Z,15.86
2023-05-14T18:13:33.221Z,15.77
2023-05-14T18:16:01.825Z,15.65
2023-05-14T18:18:30.920Z,15.58
2023-05-14T18:21:01.302Z,15.57
2023-05-14T18:23:28.127Z,15.55
2023-05-14T18:25:54.829Z,15.54
2023-05-14T18:28:24.416Z,15.47
2023-05-14T18:30:51.359Z,15.42
2023-05-14T18:33:18.273Z,15.38
2023-05-14T18:35:45.041Z,15.33
2023-05-14T18:38:13.851Z,15.31
2023-05-14T18:40:40.860Z,15.29
2023-05-14T18:43:07.690Z,15.23
2023-05-14T18:45:34.939Z,15.18
2023-05-14T18:48:01.759Z,15.13
2023-05-14T18:50:30.222Z,15.08
2023-05-14T18:52:56.936Z,15.04
2023-05-14T18:55:25.827Z,14.99
2023-05-14T18:57:52.891Z,14.93
2023-05-14T19:00:19.988Z,14.91
2023-05-14T19:02:46.762Z,14.87
2023-05-14T19:05:13.570Z,14.80
2023-05-14T19:07:41.175Z,14.68
2023-05-14T19:10:08.649Z,14.57
2023-05-14T19:12:35.429Z,14.33
2023-05-14T19:15:02.222Z,14.14
2023-05-14T19:17:32.822Z,13.95
2023-05-14T19:19:59.726Z,13.73
2023-05-14T19:22:26.396Z,13.56
2023-05-14T19:24:54.197Z,13.52
2023-05-14T19:27:20.951Z,13.42
2023-05-14T19:29:47.703Z,13.40
2023-05-14T19:32:14.553Z,13.36
2023-05-14T19:34:41.938Z,13.27
2023-05-14T19:37:08.978Z,13.14
2023-05-14T19:39:35.812Z,12.99
2023-05-14T19:42:03.406Z,12.77
2023-05-14T19:44:31.768Z,12.62
2023-05-14T19:46:58.886Z,12.45
2023-05-14T19:49:25.658Z,12.40
2023-05-14T19:51:52.427Z,12.37
2023-05-14T19:54:19.100Z,12.30
2023-05-14T19:56:45.847Z,12.27
2023-05-14T19:59:13.954Z,12.30
2023-05-14T20:01:41.549Z,12.38
2023-05-14T20:04:08.869Z,12.48
2023-05-14T20:06:35.674Z,12.58
2023-05-14T20:09:02.563Z,12.66
2023-05-14T20:11:29.397Z,12.74
2023-05-14T20:13:56.160Z,12.78
2023-05-14T20:16:25.202Z,12.80
2023-05-14T20:18:54.072Z,12.84
2023-05-14T20:21:20.807Z,12.89
2023-05-14T20:23:47.606Z,12.92
2023-05-14T20:26:14.395Z,12.95
2023-05-14T20:28:43.464Z,12.97
2023-05-14T20:31:10.204Z,12.97
2023-05-14T20:33:38.982Z,12.98
2023-05-14T20:36:05.778Z,12.99
2023-05-14T20:38:35.013Z,13.00
2023-05-14T20:41:02.253Z,13.02
2023-05-14T20:43:28.982Z,12.99
2023-05-14T20:45:57.571Z,12.94
2023-05-14T20:48:24.762Z,12.89
2023-05-14T20:50:51.517Z,12.81
2023-05-14T20:53:18.332Z,12.74
2023-05-14T20:55:45.179Z,12.66
2023-05-14T20:58:11.903Z,12.57
2023-05-14T21:00:39.415Z,12.48
2023-05-14T21:03:06.370Z,12.42
2023-05-14T21:05:33.537Z,12.34
2023-05-14T21:08:00.469Z,12.27
2023-05-14T21:10:27.469Z,12.22
2023-05-14T21:12:54.375Z,12.14
2023-05-14T21:15:21.581Z,12.08
2023-05-14T21:17:48.602Z,12.04
2023-05-14T21:20:15.696Z,12.00
2023-05-14T21:22:42.503Z,12.00
2023-05-14T21:25:09.910Z,11.95
2023-05-14T21:27:36.866Z,11.88
2023-05-14T21:30:05.398Z,11.84
2023-05-14T21:32:32.209Z,11.77
2023-05-14T21:34:59.039Z,11.69
2023-05-14T21:37:25.844Z,11.63
2023-05-14T21:39:52.522Z,11.61
2023-05-14T21:42:21.259Z,11.59
2023-05-14T21:44:48.052Z,11.55
2023-05-14T21:47:16.189Z,11.53
2023-05-14T21:49:43.333Z,11.54
2023-05-14T21:52:10.136Z,11.53
2023-05-14T21:54:38.272Z,11.52
2023-05-14T21:57:05.192Z,11.48
2023-05-14T21:59:33.408Z,11.44
2023-05-14T22:04:30.690Z,11.35
2023-05-14T22:06:57.430Z,11.30
2023-05-14T22:09:24.170Z,11.21
2023-05-14T22:11:50.931Z,11.20
2023-05-14T22:14:17.699Z,11.20
2023-05-14T22:16:44.508Z,11.18
2023-05-14T22:19:12.472Z,11.19
2023-05-14T22:21:39.512Z,11.16
2023-05-14T22:24:06.517Z,11.13
2023-05-14T22:26:33.484Z,11.13
2023-05-14T22:29:00.184Z,11.11
2023-05-14T22:31:26.939Z,11.08
2023-05-14T22:33:53.815Z,11.04
2023-05-14T22:36:20.602Z,10.99
2023-05-14T22:38:48.781Z,10.92
2023-05-14T22:41:17.682Z,10.91
2023-05-14T22:43:44.563Z,10.89
2023-05-14T22:46:11.347Z,10.95
2023-05-14T22:48:38.104Z,10.98
2023-05-14T22:51:05.819Z,11.03
2023-05-14T22:53:32.569Z,11.04
2023-05-14T22:55:59.311Z,11.04
2023-05-14T22:58:25.985Z,10.99
2023-05-14T23:00:52.729Z,11.00
2023-05-14T23:03:19.408Z,11.03
2023-05-14T23:05:47.744Z,11.03
2023-05-14T23:08:14.422Z,10.97
2023-05-14T23:10:41.116Z,10.96
2023-05-14T23:13:07.826Z,10.90
2023-05-14T23:15:34.757Z,10.82
2023-05-14T23:18:01.723Z,10.76
2023-05-14T23:20:28.455Z,10.69
2023-05-14T23:22:55.230Z,10.68
2023-05-14T23:25:22.067Z,10.67
2023-05-14T23:27:50.160Z,10.72
2023-05-14T23:30:17.096Z,10.70
2023-05-14T23:32:43.888Z,10.72
2023-05-14T23:35:10.717Z,10.66
2023-05-14T23:37:41.800Z,10.69
2023-05-14T23:40:09.721Z,10.69
2023-05-14T23:42:36.868Z,10.69
2023-05-14T23:45:04.127Z,10.64
2023-05-14T23:47:31.171Z,10.66
2023-05-14T23:49:57.951Z,10.65
2023-05-14T23:52:24.671Z,10.58
2023-05-14T23:54:51.347Z,10.56
2023-05-14T23:57:18.168Z,10.55
2023-05-14T23:59:47.471Z,10.49
